sensor_id;sensor_type;location;lat;lon;timestamp;pressure;altitude;pressure_sealevel;temperature;humidity
12468;BME280;57850;52.922;6.256;2023-03-03T00:00:28;102940.97;;;6.48;nan
12468;BME280;57850;52.922;6.256;2023-03-03T00:02:57;102942.69;;;6.46;nan
12468;BME280;57850;52.922;6.256;2023-03-03T00:05:26;102945.34;;;6.51;nan
12468;BME280;57850;52.922;6.256;2023-03-03T00:07:53;102944.47;;;6.51;nan
12468;BME280;57850;52.922;6.256;2023-03-03T00:10:19;102944.47;;;6.51;nan
12468;BME280;57850;52.922;6.256;2023-03-03T00:12:47;102946.94;;;6.43;nan
12468;BME280;57850;52.922;6.256;2023-03-03T00:15:17;102946.91;;;6.40;nan
12468;BME280;57850;52.922;6.256;2023-03-03T00:17:46;102937.53;;;6.48;nan
12468;BME280;57850;52.922;6.256;2023-03-03T00:20:30;102939.91;;;6.34;nan
12468;BME280;57850;52.922;6.256;2023-03-03T00:23:08;102929.72;;;6.46;nan
12468;BME280;57850;52.922;6.256;2023-03-03T00:25:41;102930.72;;;6.55;nan
12468;BME280;57850;52.922;6.256;2023-03-03T00:28:19;102923.72;;;6.52;nan
12468;BME280;57850;52.922;6.256;2023-03-03T00:30:48;102929.75;;;6.48;nan
12468;BME280;57850;52.922;6.256;2023-03-03T00:33:23;102926.41;;;6.58;nan
12468;BME280;57850;52.922;6.256;2023-03-03T00:35:52;102939.94;;;6.37;nan
12468;BME280;57850;52.922;6.256;2023-03-03T00:38:19;102938.31;;;6.44;nan
12468;BME280;57850;52.922;6.256;2023-03-03T00:40:46;102934.06;;;6.49;nan
12468;BME280;57850;52.922;6.256;2023-03-03T00:43:18;102926.31;;;6.52;nan
12468;BME280;57850;52.922;6.256;2023-03-03T00:45:46;102924.66;;;6.54;nan
12468;BME280;57850;52.922;6.256;2023-03-03T00:48:25;102920.28;;;6.53;nan
12468;BME280;57850;52.922;6.256;2023-03-03T00:50:53;102925.38;;;6.45;nan
12468;BME280;57850;52.922;6.256;2023-03-03T00:53:21;102924.59;;;6.51;nan
12468;BME280;57850;52.922;6.256;2023-03-03T00:55:49;102919.38;;;6.48;nan
12468;BME280;57850;52.922;6.256;2023-03-03T00:58:16;102924.59;;;6.51;nan
12468;BME280;57850;52.922;6.256;2023-03-03T01:00:46;102922.09;;;6.59;nan
12468;BME280;57850;52.922;6.256;2023-03-03T01:03:15;102925.47;;;6.53;nan
12468;BME280;57850;52.922;6.256;2023-03-03T01:05:43;102923.78;;;6.54;nan
12468;BME280;57850;52.922;6.256;2023-03-03T01:08:11;102922.91;;;6.53;nan
12468;BME280;57850;52.922;6.256;2023-03-03T01:10:41;102924.66;;;6.54;nan
12468;BME280;57850;52.922;6.256;2023-03-03T01:13:09;102928.91;;;6.51;nan
12468;BME280;57850;52.922;6.256;2023-03-03T01:15:37;102926.09;;;6.37;nan
12468;BME280;57850;52.922;6.256;2023-03-03T01:18:03;102926.19;;;6.43;nan
12468;BME280;57850;52.922;6.256;2023-03-03T01:20:30;102930.50;;;6.41;nan
12468;BME280;57850;52.922;6.256;2023-03-03T01:22:58;102919.47;;;6.56;nan
12468;BME280;57850;52.922;6.256;2023-03-03T01:25:25;102920.22;;;6.47;nan
12468;BME280;57850;52.922;6.256;2023-03-03T01:27:51;102918.66;;;6.61;nan
12468;BME280;57850;52.922;6.256;2023-03-03T01:30:18;102922.72;;;6.42;nan
12468;BME280;57850;52.922;6.256;2023-03-03T01:32:44;102921.66;;;6.28;nan
12468;BME280;57850;52.922;6.256;2023-03-03T01:35:11;102906.31;;;6.42;nan
12468;BME280;57850;52.922;6.256;2023-03-03T01:37:38;102897.78;;;6.51;nan
12468;BME280;57850;52.922;6.256;2023-03-03T01:40:13;102897.84;;;6.54;nan
12468;BME280;57850;52.922;6.256;2023-03-03T01:42:41;102898.72;;;6.54;nan
12468;BME280;57850;52.922;6.256;2023-03-03T01:45:16;102893.53;;;6.54;nan
12468;BME280;57850;52.922;6.256;2023-03-03T01:47:47;102889.22;;;6.55;nan
12468;BME280;57850;52.922;6.256;2023-03-03T01:50:25;102893.53;;;6.56;nan
12468;BME280;57850;52.922;6.256;2023-03-03T01:52:53;102884.09;;;6.61;nan
12468;BME280;57850;52.922;6.256;2023-03-03T01:55:24;102890.09;;;6.58;nan
12468;BME280;57850;52.922;6.256;2023-03-03T01:57:57;102892.66;;;6.54;nan
12468;BME280;57850;52.922;6.256;2023-03-03T02:00:25;102886.63;;;6.56;nan
12468;BME280;57850;52.922;6.256;2023-03-03T02:02:52;102890.81;;;6.45;nan
12468;BME280;57850;52.922;6.256;2023-03-03T02:05:19;102883.78;;;6.39;nan
12468;BME280;57850;52.922;6.256;2023-03-03T02:07:46;102880.56;;;6.54;nan
12468;BME280;57850;52.922;6.256;2023-03-03T02:10:15;102883.94;;;6.50;nan
12468;BME280;57850;52.922;6.256;2023-03-03T02:12:47;102879.66;;;6.52;nan
12468;BME280;57850;52.922;6.256;2023-03-03T02:15:17;102883.06;;;6.50;nan
12468;BME280;57850;52.922;6.256;2023-03-03T02:17:44;102885.59;;;6.43;nan
12468;BME280;57850;52.922;6.256;2023-03-03T02:20:14;102878.69;;;6.44;nan
12468;BME280;57850;52.922;6.256;2023-03-03T02:22:47;102880.47;;;6.48;nan
12468;BME280;57850;52.922;6.256;2023-03-03T02:25:21;102885.63;;;6.45;nan
12468;BME280;57850;52.922;6.256;2023-03-03T02:27:51;102886.47;;;6.44;nan
12468;BME280;57850;52.922;6.256;2023-03-03T02:30:22;102885.53;;;6.39;nan
12468;BME280;57850;52.922;6.256;2023-03-03T02:32:49;102884.63;;;6.37;nan
12468;BME280;57850;52.922;6.256;2023-03-03T02:35:26;102879.59;;;6.47;nan
12468;BME280;57850;52.922;6.256;2023-03-03T02:37:54;102878.00;;;6.59;nan
12468;BME280;57850;52.922;6.256;2023-03-03T02:40:24;102883.03;;;6.46;nan
12468;BME280;57850;52.922;6.256;2023-03-03T02:42:54;102880.50;;;6.50;nan
12468;BME280;57850;52.922;6.256;2023-03-03T02:45:23;102876.94;;;6.41;nan
12468;BME280;57850;52.922;6.256;2023-03-03T02:47:49;102885.59;;;6.42;nan
12468;BME280;57850;52.922;6.256;2023-03-03T02:50:16;102876.09;;;6.44;nan
12468;BME280;57850;52.922;6.256;2023-03-03T02:52:43;102882.97;;;6.40;nan
12468;BME280;57850;52.922;6.256;2023-03-03T02:55:09;102881.28;;;6.44;nan
12468;BME280;57850;52.922;6.256;2023-03-03T02:57:36;102886.38;;;6.39;nan
12468;BME280;57850;52.922;6.256;2023-03-03T03:00:06;102882.13;;;6.43;nan
12468;BME280;57850;52.922;6.256;2023-03-03T03:02:33;102883.03;;;6.45;nan
12468;BME280;57850;52.922;6.256;2023-03-03T03:04:59;102883.03;;;6.46;nan
12468;BME280;57850;52.922;6.256;2023-03-03T03:07:26;102874.47;;;6.52;nan
12468;BME280;57850;52.922;6.256;2023-03-03T03:09:52;102880.59;;;6.59;nan
12468;BME280;57850;52.922;6.256;2023-03-03T03:12:19;102879.66;;;6.51;nan
12468;BME280;57850;52.922;6.256;2023-03-03T03:14:45;102877.81;;;6.43;nan
12468;BME280;57850;52.922;6.256;2023-03-03T03:17:13;102872.78;;;6.54;nan
12468;BME280;57850;52.922;6.256;2023-03-03T03:19:40;102887.31;;;6.43;nan
12468;BME280;57850;52.922;6.256;2023-03-03T03:22:07;102884.78;;;6.49;nan
12468;BME280;57850;52.922;6.256;2023-03-03T03:24:34;102893.31;;;6.39;nan
12468;BME280;57850;52.922;6.256;2023-03-03T03:27:00;102904.09;;;6.09;nan
12468;BME280;57850;52.922;6.256;2023-03-03T03:29:27;102905.34;;;5.81;nan
12468;BME280;57850;52.922;6.256;2023-03-03T03:31:54;102905.16;;;5.71;nan
12468;BME280;57850;52.922;6.256;2023-03-03T03:34:21;102895.00;;;5.83;nan
12468;BME280;57850;52.922;6.256;2023-03-03T03:36:48;102892.53;;;5.89;nan
12468;BME280;57850;52.922;6.256;2023-03-03T03:39:14;102898.53;;;5.86;nan
12468;BME280;57850;52.922;6.256;2023-03-03T03:41:41;102897.44;;;5.72;nan
12468;BME280;57850;52.922;6.256;2023-03-03T03:44:08;102885.50;;;5.83;nan
12468;BME280;57850;52.922;6.256;2023-03-03T03:46:35;102890.38;;;5.64;nan
12468;BME280;57850;52.922;6.256;2023-03-03T03:49:01;102900.81;;;5.68;nan
12468;BME280;57850;52.922;6.256;2023-03-03T03:51:29;102897.34;;;5.66;nan
12468;BME280;57850;52.922;6.256;2023-03-03T03:53:58;102905.63;;;5.47;nan
12468;BME280;57850;52.922;6.256;2023-03-03T03:56:24;102898.22;;;5.67;nan
12468;BME280;57850;52.922;6.256;2023-03-03T03:58:52;102908.31;;;5.55;nan
12468;BME280;57850;52.922;6.256;2023-03-03T04:01:18;102914.31;;;5.52;nan
12468;BME280;57850;52.922;6.256;2023-03-03T04:03:45;102924.28;;;5.31;nan
12468;BME280;57850;52.922;6.256;2023-03-03T04:06:13;102921.59;;;5.26;nan
12468;BME280;57850;52.922;6.256;2023-03-03T04:08:41;102922.44;;;5.24;nan
12468;BME280;57850;52.922;6.256;2023-03-03T04:11:08;102922.31;;;5.18;nan
12468;BME280;57850;52.922;6.256;2023-03-03T04:13:34;102921.81;;;5.35;nan
12468;BME280;57850;52.922;6.256;2023-03-03T04:16:01;102913.94;;;5.31;nan
12468;BME280;57850;52.922;6.256;2023-03-03T04:18:28;102915.47;;;5.20;nan
12468;BME280;57850;52.922;6.256;2023-03-03T04:20:54;102917.19;;;5.21;nan
12468;BME280;57850;52.922;6.256;2023-03-03T04:23:21;102922.19;;;5.12;nan
12468;BME280;57850;52.922;6.256;2023-03-03T04:25:49;102927.03;;;4.95;nan
12468;BME280;57850;52.922;6.256;2023-03-03T04:28:16;102914.19;;;5.00;nan
12468;BME280;57850;52.922;6.256;2023-03-03T04:30:43;102915.84;;;4.96;nan
12468;BME280;57850;52.922;6.256;2023-03-03T04:33:10;102925.50;;;4.63;nan
12468;BME280;57850;52.922;6.256;2023-03-03T04:35:37;102915.16;;;4.64;nan
12468;BME280;57850;52.922;6.256;2023-03-03T04:38:03;102915.84;;;4.56;nan
12468;BME280;57850;52.922;6.256;2023-03-03T04:40:30;102909.19;;;4.65;nan
12468;BME280;57850;52.922;6.256;2023-03-03T04:42:58;102908.53;;;4.75;nan
12468;BME280;57850;52.922;6.256;2023-03-03T04:45:24;102907.13;;;4.91;nan
12468;BME280;57850;52.922;6.256;2023-03-03T04:47:51;102932.78;;;4.42;nan
12468;BME280;57850;52.922;6.256;2023-03-03T04:50:18;102926.59;;;4.35;nan
12468;BME280;57850;52.922;6.256;2023-03-03T04:52:45;102942.75;;;4.26;nan
12468;BME280;57850;52.922;6.256;2023-03-03T04:55:12;102929.97;;;4.32;nan
12468;BME280;57850;52.922;6.256;2023-03-03T04:57:40;102934.78;;;4.17;nan
12468;BME280;57850;52.922;6.256;2023-03-03T05:00:10;102934.84;;;4.19;nan
12468;BME280;57850;52.922;6.256;2023-03-03T05:02:38;102937.06;;;4.05;nan
12468;BME280;57850;52.922;6.256;2023-03-03T05:05:05;102934.69;;;4.13;nan
12468;BME280;57850;52.922;6.256;2023-03-03T05:07:32;102948.75;;;3.90;nan
12468;BME280;57850;52.922;6.256;2023-03-03T05:09:59;102965.66;;;3.46;nan
12468;BME280;57850;52.922;6.256;2023-03-03T05:12:25;102970.22;;;3.24;nan
12468;BME280;57850;52.922;6.256;2023-03-03T05:14:52;102945.22;;;3.53;nan
12468;BME280;57850;52.922;6.256;2023-03-03T05:17:20;102937.63;;;3.59;nan
12468;BME280;57850;52.922;6.256;2023-03-03T05:19:47;102936.16;;;3.69;nan
12468;BME280;57850;52.922;6.256;2023-03-03T05:22:13;102937.28;;;3.78;nan
12468;BME280;57850;52.922;6.256;2023-03-03T05:24:40;102928.16;;;3.93;nan
12468;BME280;57850;52.922;6.256;2023-03-03T05:27:08;102933.09;;;3.84;nan
12468;BME280;57850;52.922;6.256;2023-03-03T05:29:36;102926.66;;;4.01;nan
12468;BME280;57850;52.922;6.256;2023-03-03T05:32:02;102938.06;;;3.76;nan
12468;BME280;57850;52.922;6.256;2023-03-03T05:34:30;102927.94;;;3.84;nan
12468;BME280;57850;52.922;6.256;2023-03-03T05:36:57;102939.13;;;3.84;nan
12468;BME280;57850;52.922;6.256;2023-03-03T05:39:24;102951.59;;;3.67;nan
12468;BME280;57850;52.922;6.256;2023-03-03T05:41:50;102967.09;;;3.35;nan
12468;BME280;57850;52.922;6.256;2023-03-03T05:44:17;102959.28;;;3.33;nan
12468;BME280;57850;52.922;6.256;2023-03-03T05:46:43;102960.50;;;3.46;nan
12468;BME280;57850;52.922;6.256;2023-03-03T05:49:10;102974.00;;;3.06;nan
12468;BME280;57850;52.922;6.256;2023-03-03T05:51:38;102970.75;;;2.83;nan
12468;BME280;57850;52.922;6.256;2023-03-03T05:54:04;102951.34;;;3.26;nan
12468;BME280;57850;52.922;6.256;2023-03-03T05:56:31;102950.81;;;3.37;nan
12468;BME280;57850;52.922;6.256;2023-03-03T05:58:57;102958.94;;;3.21;nan
12468;BME280;57850;52.922;6.256;2023-03-03T06:01:24;102954.13;;;3.33;nan
12468;BME280;57850;52.922;6.256;2023-03-03T06:03:51;102958.25;;;3.27;nan
12468;BME280;57850;52.922;6.256;2023-03-03T06:06:18;102958.56;;;3.39;nan
12468;BME280;57850;52.922;6.256;2023-03-03T06:08:46;102962.19;;;3.45;nan
12468;BME280;57850;52.922;6.256;2023-03-03T06:11:12;102960.81;;;3.58;nan
12468;BME280;57850;52.922;6.256;2023-03-03T06:13:41;102954.84;;;3.60;nan
12468;BME280;57850;52.922;6.256;2023-03-03T06:16:08;102983.28;;;3.31;nan
12468;BME280;57850;52.922;6.256;2023-03-03T06:18:34;102972.66;;;3.50;nan
12468;BME280;57850;52.922;6.256;2023-03-03T06:21:01;102987.09;;;3.13;nan
12468;BME280;57850;52.922;6.256;2023-03-03T06:23:27;102966.78;;;3.55;nan
12468;BME280;57850;52.922;6.256;2023-03-03T06:25:55;102968.06;;;3.71;nan
12468;BME280;57850;52.922;6.256;2023-03-03T06:28:22;102973.34;;;3.75;nan
12468;BME280;57850;52.922;6.256;2023-03-03T06:30:52;102992.72;;;3.30;nan
12468;BME280;57850;52.922;6.256;2023-03-03T06:33:18;102994.34;;;3.27;nan
12468;BME280;57850;52.922;6.256;2023-03-03T06:35:48;103001.53;;;3.07;nan
12468;BME280;57850;52.922;6.256;2023-03-03T06:38:15;102995.91;;;2.92;nan
12468;BME280;57850;52.922;6.256;2023-03-03T06:40:41;103000.56;;;2.75;nan
12468;BME280;57850;52.922;6.256;2023-03-03T06:43:10;102987.41;;;2.94;nan
12468;BME280;57850;52.922;6.256;2023-03-03T06:45:36;102980.66;;;3.29;nan
12468;BME280;57850;52.922;6.256;2023-03-03T06:48:03;103000.97;;;2.89;nan
12468;BME280;57850;52.922;6.256;2023-03-03T06:50:30;102995.63;;;2.83;nan
12468;BME280;57850;52.922;6.256;2023-03-03T06:53:01;102985.84;;;2.99;nan
12468;BME280;57850;52.922;6.256;2023-03-03T06:55:30;102994.72;;;3.09;nan
12468;BME280;57850;52.922;6.256;2023-03-03T06:57:58;102989.47;;;3.06;nan
12468;BME280;57850;52.922;6.256;2023-03-03T07:00:27;102984.19;;;3.31;nan
12468;BME280;57850;52.922;6.256;2023-03-03T07:02:58;102987.19;;;3.16;nan
12468;BME280;57850;52.922;6.256;2023-03-03T07:05:26;102996.06;;;3.26;nan
12468;BME280;57850;52.922;6.256;2023-03-03T07:07:53;102999.31;;;3.19;nan
12468;BME280;57850;52.922;6.256;2023-03-03T07:10:23;102994.09;;;3.17;nan
12468;BME280;57850;52.922;6.256;2023-03-03T07:12:50;103001.50;;;3.35;nan
12468;BME280;57850;52.922;6.256;2023-03-03T07:15:20;103013.13;;;3.21;nan
12468;BME280;57850;52.922;6.256;2023-03-03T07:17:51;103006.13;;;3.48;nan
12468;BME280;57850;52.922;6.256;2023-03-03T07:20:20;103010.63;;;3.54;nan
12468;BME280;57850;52.922;6.256;2023-03-03T07:22:47;103013.13;;;3.52;nan
12468;BME280;57850;52.922;6.256;2023-03-03T07:25:29;103010.22;;;3.71;nan
12468;BME280;57850;52.922;6.256;2023-03-03T07:27:59;103007.41;;;3.95;nan
12468;BME280;57850;52.922;6.256;2023-03-03T07:30:27;103013.34;;;3.91;nan
12468;BME280;57850;52.922;6.256;2023-03-03T07:32:57;103019.09;;;3.81;nan
12468;BME280;57850;52.922;6.256;2023-03-03T07:35:35;103025.56;;;3.65;nan
12468;BME280;57850;52.922;6.256;2023-03-03T07:38:19;103028.53;;;3.81;nan
12468;BME280;57850;52.922;6.256;2023-03-03T07:40:50;103034.53;;;3.79;nan
12468;BME280;57850;52.922;6.256;2023-03-03T07:43:30;103036.28;;;3.81;nan
12468;BME280;57850;52.922;6.256;2023-03-03T07:46:01;103032.41;;;3.96;nan
12468;BME280;57850;52.922;6.256;2023-03-03T07:48:34;103039.59;;;3.75;nan
12468;BME280;57850;52.922;6.256;2023-03-03T07:51:04;103026.13;;;3.87;nan
12468;BME280;57850;52.922;6.256;2023-03-03T07:53:33;103024.00;;;4.05;nan
12468;BME280;57850;52.922;6.256;2023-03-03T07:56:06;103029.97;;;4.02;nan
12468;BME280;57850;52.922;6.256;2023-03-03T07:58:39;103031.59;;;3.99;nan
12468;BME280;57850;52.922;6.256;2023-03-03T08:01:40;103016.31;;;4.41;nan
12468;BME280;57850;52.922;6.256;2023-03-03T08:04:20;103028.16;;;4.32;nan
12468;BME280;57850;52.922;6.256;2023-03-03T08:06:51;103020.47;;;4.71;nan
12468;BME280;57850;52.922;6.256;2023-03-03T08:09:28;103038.41;;;4.29;nan
12468;BME280;57850;52.922;6.256;2023-03-03T08:11:58;103025.53;;;4.67;nan
12468;BME280;57850;52.922;6.256;2023-03-03T08:14:27;103025.56;;;4.68;nan
12468;BME280;57850;52.922;6.256;2023-03-03T08:16:55;103018.09;;;4.80;nan
12468;BME280;57850;52.922;6.256;2023-03-03T08:19:23;103033.19;;;4.62;nan
12468;BME280;57850;52.922;6.256;2023-03-03T08:21:50;103043.84;;;4.40;nan
12468;BME280;57850;52.922;6.256;2023-03-03T08:24:17;103012.50;;;5.01;nan
12468;BME280;57850;52.922;6.256;2023-03-03T08:26:44;103005.00;;;5.12;nan
12468;BME280;57850;52.922;6.256;2023-03-03T08:29:11;103022.59;;;4.89;nan
12468;BME280;57850;52.922;6.256;2023-03-03T08:31:37;103011.84;;;5.10;nan
12468;BME280;57850;52.922;6.256;2023-03-03T08:34:04;103019.03;;;5.23;nan
12468;BME280;57850;52.922;6.256;2023-03-03T08:36:31;103009.66;;;5.29;nan
12468;BME280;57850;52.922;6.256;2023-03-03T08:38:58;103000.69;;;5.54;nan
12468;BME280;57850;52.922;6.256;2023-03-03T08:41:24;103009.00;;;5.38;nan
12468;BME280;57850;52.922;6.256;2023-03-03T08:43:51;103022.31;;;4.77;nan
12468;BME280;57850;52.922;6.256;2023-03-03T08:46:18;102993.16;;;5.23;nan
12468;BME280;57850;52.922;6.256;2023-03-03T08:48:44;102981.06;;;5.67;nan
12468;BME280;57850;52.922;6.256;2023-03-03T08:51:11;102965.91;;;6.40;nan
12468;BME280;57850;52.922;6.256;2023-03-03T08:53:38;102958.41;;;7.25;nan
12468;BME280;57850;52.922;6.256;2023-03-03T08:56:06;102955.97;;;7.38;nan
12468;BME280;57850;52.922;6.256;2023-03-03T08:58:33;102973.38;;;7.47;nan
12468;BME280;57850;52.922;6.256;2023-03-03T09:00:59;102948.59;;;7.81;nan
12468;BME280;57850;52.922;6.256;2023-03-03T09:03:26;102974.94;;;7.31;nan
12468;BME280;57850;52.922;6.256;2023-03-03T09:05:52;102992.28;;;6.69;nan
12468;BME280;57850;52.922;6.256;2023-03-03T09:08:19;102973.03;;;7.17;nan
12468;BME280;57850;52.922;6.256;2023-03-03T09:10:47;102956.28;;;7.67;nan
12468;BME280;57850;52.922;6.256;2023-03-03T09:13:15;102958.81;;;7.61;nan
12468;BME280;57850;52.922;6.256;2023-03-03T09:15:44;102958.91;;;7.70;nan
12468;BME280;57850;52.922;6.256;2023-03-03T09:18:15;102942.91;;;8.27;nan
12468;BME280;57850;52.922;6.256;2023-03-03T09:20:42;102936.78;;;8.19;nan
12468;BME280;57850;52.922;6.256;2023-03-03T09:23:31;102939.63;;;8.51;nan
12468;BME280;57850;52.922;6.256;2023-03-03T09:26:16;102933.66;;;8.64;nan
12468;BME280;57850;52.922;6.256;2023-03-03T09:28:47;102929.44;;;8.96;nan
12468;BME280;57850;52.922;6.256;2023-03-03T09:31:21;102954.09;;;8.19;nan
12468;BME280;57850;52.922;6.256;2023-03-03T09:33:49;102928.50;;;8.79;nan
12468;BME280;57850;52.922;6.256;2023-03-03T09:36:23;102930.31;;;8.92;nan
12468;BME280;57850;52.922;6.256;2023-03-03T09:38:51;102865.69;;;11.31;nan
12468;BME280;57850;52.922;6.256;2023-03-03T09:45:01;102914.78;;;10.68;nan
12468;BME280;57850;52.922;6.256;2023-03-03T09:47:40;102915.69;;;10.55;nan
12468;BME280;57850;52.922;6.256;2023-03-03T09:50:18;102919.22;;;10.33;nan
12468;BME280;57850;52.922;6.256;2023-03-03T09:52:52;102948.75;;;10.03;nan
12468;BME280;57850;52.922;6.256;2023-03-03T09:55:38;102942.69;;;10.07;nan
12468;BME280;57850;52.922;6.256;2023-03-03T09:58:28;102929.63;;;10.34;nan
12468;BME280;57850;52.922;6.256;2023-03-03T10:01:06;102889.16;;;11.40;nan
12468;BME280;57850;52.922;6.256;2023-03-03T10:06:44;102895.28;;;11.36;nan
12468;BME280;57850;52.922;6.256;2023-03-03T10:09:35;102909.31;;;11.18;nan
12468;BME280;57850;52.922;6.256;2023-03-03T10:12:09;102887.19;;;11.67;nan
12468;BME280;57850;52.922;6.256;2023-03-03T10:14:51;102827.00;;;13.21;nan
12468;BME280;57850;52.922;6.256;2023-03-03T10:17:31;102762.66;;;14.83;nan
12468;BME280;57850;52.922;6.256;2023-03-03T10:20:12;102749.22;;;14.95;nan
12468;BME280;57850;52.922;6.256;2023-03-03T10:22:49;102783.16;;;14.24;nan
12468;BME280;57850;52.922;6.256;2023-03-03T10:25:28;102709.66;;;15.99;nan
12468;BME280;57850;52.922;6.256;2023-03-03T10:28:09;102716.66;;;16.00;nan
12468;BME280;57850;52.922;6.256;2023-03-03T10:30:50;102683.53;;;16.21;nan
12468;BME280;57850;52.922;6.256;2023-03-03T10:33:25;102735.34;;;15.59;nan
12468;BME280;57850;52.922;6.256;2023-03-03T10:36:09;102755.16;;;15.03;nan
12468;BME280;57850;52.922;6.256;2023-03-03T10:38:50;102780.75;;;14.57;nan
12468;BME280;57850;52.922;6.256;2023-03-03T10:41:42;102752.88;;;15.25;nan
12468;BME280;57850;52.922;6.256;2023-03-03T10:44:32;102760.00;;;14.84;nan
12468;BME280;57850;52.922;6.256;2023-03-03T10:47:29;102660.91;;;16.97;nan
12468;BME280;57850;52.922;6.256;2023-03-03T10:50:09;102562.88;;;18.67;nan
12468;BME280;57850;52.922;6.256;2023-03-03T10:52:45;102636.91;;;17.30;nan
12468;BME280;57850;52.922;6.256;2023-03-03T10:55:20;102657.56;;;17.17;nan
12468;BME280;57850;52.922;6.256;2023-03-03T10:58:05;102709.06;;;15.88;nan
12468;BME280;57850;52.922;6.256;2023-03-03T11:00:40;102693.47;;;16.12;nan
12468;BME280;57850;52.922;6.256;2023-03-03T11:06:23;102773.75;;;14.95;nan
12468;BME280;57850;52.922;6.256;2023-03-03T11:08:54;102822.47;;;13.83;nan
12468;BME280;57850;52.922;6.256;2023-03-03T11:11:30;102798.66;;;14.38;nan
12468;BME280;57850;52.922;6.256;2023-03-03T11:14:02;102807.03;;;14.12;nan
12468;BME280;57850;52.922;6.256;2023-03-03T11:16:39;102817.78;;;14.00;nan
12468;BME280;57850;52.922;6.256;2023-03-03T11:19:24;102845.09;;;13.36;nan
12468;BME280;57850;52.922;6.256;2023-03-03T11:22:04;102843.25;;;13.43;nan
12468;BME280;57850;52.922;6.256;2023-03-03T11:24:44;102847.69;;;13.38;nan
12468;BME280;57850;52.922;6.256;2023-03-03T11:27:25;102846.19;;;13.22;nan
12468;BME280;57850;52.922;6.256;2023-03-03T11:30:05;102840.69;;;13.38;nan
12468;BME280;57850;52.922;6.256;2023-03-03T11:32:41;102872.53;;;12.44;nan
12468;BME280;57850;52.922;6.256;2023-03-03T11:35:24;102829.66;;;13.18;nan
12468;BME280;57850;52.922;6.256;2023-03-03T11:38:01;102829.06;;;12.98;nan
12468;BME280;57850;52.922;6.256;2023-03-03T11:40:40;102819.91;;;13.28;nan
12468;BME280;57850;52.922;6.256;2023-03-03T11:43:16;102812.97;;;13.24;nan
12468;BME280;57850;52.922;6.256;2023-03-03T11:45:47;102804.03;;;13.35;nan
12468;BME280;57850;52.922;6.256;2023-03-03T11:48:19;102806.97;;;13.16;nan
12468;BME280;57850;52.922;6.256;2023-03-03T11:50:54;102788.91;;;13.51;nan
12468;BME280;57850;52.922;6.256;2023-03-03T11:53:34;102782.84;;;13.49;nan
12468;BME280;57850;52.922;6.256;2023-03-03T11:56:12;102780.16;;;13.52;nan
12468;BME280;57850;52.922;6.256;2023-03-03T11:58:45;102766.75;;;13.69;nan
12468;BME280;57850;52.922;6.256;2023-03-03T12:01:18;102796.44;;;13.19;nan
12468;BME280;57850;52.922;6.256;2023-03-03T12:03:48;102777.59;;;13.48;nan
12468;BME280;57850;52.922;6.256;2023-03-03T12:06:23;102788.25;;;13.40;nan
12468;BME280;57850;52.922;6.256;2023-03-03T12:09:11;102762.50;;;14.08;nan
12468;BME280;57850;52.922;6.256;2023-03-03T12:11:46;102773.97;;;13.56;nan
12468;BME280;57850;52.922;6.256;2023-03-03T12:14:24;102767.47;;;13.77;nan
12468;BME280;57850;52.922;6.256;2023-03-03T12:16:55;102769.06;;;13.85;nan
12468;BME280;57850;52.922;6.256;2023-03-03T12:19:31;102763.28;;;13.67;nan
12468;BME280;57850;52.922;6.256;2023-03-03T12:22:10;102779.47;;;13.41;nan
12468;BME280;57850;52.922;6.256;2023-03-03T12:24:48;102767.03;;;12.97;nan
12468;BME280;57850;52.922;6.256;2023-03-03T12:27:22;102662.94;;;14.77;nan
12468;BME280;57850;52.922;6.256;2023-03-03T12:30:02;102693.72;;;14.33;nan
12468;BME280;57850;52.922;6.256;2023-03-03T12:32:50;102680.75;;;14.64;nan
12468;BME280;57850;52.922;6.256;2023-03-03T12:35:29;102645.00;;;15.59;nan
12468;BME280;57850;52.922;6.256;2023-03-03T12:38:03;102659.56;;;15.06;nan
12468;BME280;57850;52.922;6.256;2023-03-03T12:40:35;102685.06;;;14.67;nan
12468;BME280;57850;52.922;6.256;2023-03-03T12:43:16;102695.25;;;14.43;nan
12468;BME280;57850;52.922;6.256;2023-03-03T12:45:53;102578.69;;;16.32;nan
12468;BME280;57850;52.922;6.256;2023-03-03T12:48:26;102522.00;;;17.21;nan
12468;BME280;57850;52.922;6.256;2023-03-03T12:51:00;102479.59;;;17.94;nan
12468;BME280;57850;52.922;6.256;2023-03-03T12:53:48;102449.88;;;18.31;nan
12468;BME280;57850;52.922;6.256;2023-03-03T12:56:24;102467.78;;;17.82;nan
12468;BME280;57850;52.922;6.256;2023-03-03T12:58:57;102414.91;;;19.03;nan
12468;BME280;57850;52.922;6.256;2023-03-03T13:01:38;102412.94;;;18.69;nan
12468;BME280;57850;52.922;6.256;2023-03-03T13:04:14;102478.97;;;17.42;nan
12468;BME280;57850;52.922;6.256;2023-03-03T13:06:45;102544.38;;;16.62;nan
12468;BME280;57850;52.922;6.256;2023-03-03T13:09:22;102607.91;;;15.97;nan
12468;BME280;57850;52.922;6.256;2023-03-03T13:12:21;102634.97;;;15.40;nan
12468;BME280;57850;52.922;6.256;2023-03-03T13:14:52;102629.75;;;15.39;nan
12468;BME280;57850;52.922;6.256;2023-03-03T13:17:23;102571.97;;;16.50;nan
12468;BME280;57850;52.922;6.256;2023-03-03T13:19:55;102497.06;;;17.53;nan
12468;BME280;57850;52.922;6.256;2023-03-03T13:22:36;102538.69;;;16.47;nan
12468;BME280;57850;52.922;6.256;2023-03-03T13:25:07;102605.88;;;15.14;nan
12468;BME280;57850;52.922;6.256;2023-03-03T13:27:44;102605.44;;;15.31;nan
12468;BME280;57850;52.922;6.256;2023-03-03T13:30:15;102638.25;;;15.16;nan
12468;BME280;57850;52.922;6.256;2023-03-03T13:32:48;102680.91;;;14.17;nan
12468;BME280;57850;52.922;6.256;2023-03-03T13:35:24;102638.50;;;15.39;nan
12468;BME280;57850;52.922;6.256;2023-03-03T13:37:55;102622.53;;;15.45;nan
12468;BME280;57850;52.922;6.256;2023-03-03T13:40:24;102646.13;;;14.82;nan
12468;BME280;57850;52.922;6.256;2023-03-03T13:42:56;102684.97;;;14.34;nan
12468;BME280;57850;52.922;6.256;2023-03-03T13:45:29;102687.53;;;14.36;nan
12468;BME280;57850;52.922;6.256;2023-03-03T13:48:04;102660.94;;;14.86;nan
12468;BME280;57850;52.922;6.256;2023-03-03T13:50:38;102665.13;;;14.60;nan